< < Back
Terminal Aerodrome Forecast


Current Version              Previous Versions:   1  2  3  4  5  6  7  8  9  

Terminal Aerodrome Forecast

100
FTUS44 KMRX 231723
TAFTYS
TAF
KTYS 231723Z 2318/2418 24005KT P6SM VCTS SCT035CB BKN120
     FM240100 24004KT P6SM VCTS SCT040CB BKN100
     FM240500 23005KT P6SM VCSH BKN030 OVC080
     FM240900 23004KT 5SM BR BKN025
     FM241300 24008KT P6SM VCTS BKN040CB=



Latest METAR

976
SAUS80 KWBC 241000
MTRTYS
METAR KTYS 240953Z 00000KT 10SM OVC028 23/21 A2994 RMK AO2 SLP128
T02280206


USA.gov is the U.S. government's official web portal to all federal, state and local government web resources and services.